createdAt,value
2018-04-30T00:00:38.457Z,0.00
2018-04-30T00:02:31.338Z,0.00
2018-04-30T00:03:31.293Z,0.00
2018-04-30T00:05:24.169Z,0.00
2018-04-30T00:06:24.131Z,0.00
2018-04-30T00:08:17.006Z,0.00
2018-04-30T00:09:16.988Z,0.00
2018-04-30T00:11:09.860Z,0.00
2018-04-30T00:12:09.828Z,0.00
2018-04-30T00:14:02.689Z,0.00
2018-04-30T00:15:02.670Z,0.00
2018-04-30T00:16:55.535Z,0.00
2018-04-30T00:17:55.504Z,0.00
2018-04-30T00:19:48.359Z,0.00
2018-04-30T00:20:48.340Z,0.00
2018-04-30T00:22:41.209Z,0.00
2018-04-30T00:23:41.196Z,0.00
2018-04-30T00:25:34.037Z,0.00
2018-04-30T00:26:34.024Z,0.00
2018-04-30T00:28:26.892Z,0.00
2018-04-30T00:29:26.855Z,0.00
2018-04-30T00:31:19.723Z,0.00
2018-04-30T00:32:19.692Z,0.00
2018-04-30T00:34:12.569Z,0.00
2018-04-30T00:35:12.541Z,0.00
2018-04-30T00:37:05.392Z,0.00
2018-04-30T00:38:05.374Z,0.00
2018-04-30T00:39:58.260Z,0.00
2018-04-30T00:40:58.217Z,0.00
2018-04-30T00:42:51.082Z,0.00
2018-04-30T00:43:51.052Z,0.00
2018-04-30T00:45:43.915Z,0.00
2018-04-30T00:46:43.884Z,0.00
2018-04-30T00:48:36.749Z,0.00
2018-04-30T00:49:36.732Z,0.00
2018-04-30T00:51:29.606Z,0.00
2018-04-30T00:52:29.575Z,0.00
2018-04-30T00:54:22.432Z,0.00
2018-04-30T00:55:22.413Z,0.00
2018-04-30T00:57:15.287Z,0.00
2018-04-30T00:58:15.254Z,0.00
2018-04-30T01:00:08.112Z,0.00
2018-04-30T01:01:08.097Z,0.00
2018-04-30T01:03:00.965Z,0.00
2018-04-30T01:04:00.933Z,0.00
2018-04-30T01:05:53.793Z,0.00
2018-04-30T01:06:53.777Z,0.00
2018-04-30T01:08:46.642Z,0.00
2018-04-30T01:09:46.609Z,0.00
2018-04-30T01:11:39.486Z,0.00
2018-04-30T01:12:39.464Z,0.00
2018-04-30T01:14:32.332Z,0.00
2018-04-30T01:15:32.302Z,0.00
2018-04-30T01:17:25.161Z,0.00
2018-04-30T01:18:25.138Z,0.00
2018-04-30T01:20:18.013Z,0.00
2018-04-30T01:21:17.978Z,0.00
2018-04-30T01:23:10.831Z,0.00
2018-04-30T01:24:10.810Z,0.00
2018-04-30T01:26:03.684Z,0.00
2018-04-30T01:27:03.655Z,0.00
2018-04-30T01:28:56.500Z,0.00
2018-04-30T01:29:56.482Z,0.00
2018-04-30T01:31:49.352Z,0.00
2018-04-30T01:32:49.322Z,0.00
2018-04-30T01:34:42.175Z,0.00
2018-04-30T01:35:42.153Z,0.00
2018-04-30T01:37:35.025Z,0.00
2018-04-30T01:38:34.995Z,0.00
2018-04-30T01:40:27.846Z,0.00
2018-04-30T01:41:27.827Z,0.00
2018-04-30T01:43:20.699Z,0.00
2018-04-30T01:44:20.670Z,0.00
2018-04-30T01:46:13.518Z,0.00
2018-04-30T01:47:13.496Z,0.00
2018-04-30T01:49:06.369Z,0.00
2018-04-30T01:50:06.333Z,0.00
2018-04-30T01:51:59.189Z,0.00
2018-04-30T01:52:59.170Z,0.00
2018-04-30T01:54:52.036Z,0.00
2018-04-30T01:55:52.011Z,0.00
2018-04-30T01:57:44.855Z,0.00
2018-04-30T01:58:44.838Z,0.00
2018-04-30T02:00:37.781Z,0.00
2018-04-30T02:01:37.690Z,0.00
2018-04-30T02:03:30.528Z,0.00
2018-04-30T02:04:30.508Z,0.00
2018-04-30T02:06:23.373Z,0.00
2018-04-30T02:07:23.343Z,0.00
2018-04-30T02:09:16.198Z,0.00
2018-04-30T02:10:16.179Z,0.00
2018-04-30T02:12:09.044Z,0.00
2018-04-30T02:13:09.016Z,0.00
2018-04-30T02:15:01.869Z,0.00
2018-04-30T02:16:01.849Z,0.00
2018-04-30T02:17:54.709Z,0.00
2018-04-30T02:18:54.682Z,0.00
2018-04-30T02:20:47.541Z,0.00
2018-04-30T02:21:47.516Z,0.00
2018-04-30T02:23:40.379Z,0.00
2018-04-30T02:24:40.348Z,0.00
2018-04-30T02:26:33.200Z,0.00
2018-04-30T02:27:33.197Z,0.00
2018-04-30T02:29:26.085Z,0.00
2018-04-30T02:30:26.018Z,0.00
2018-04-30T02:32:18.872Z,0.00
2018-04-30T02:33:18.853Z,0.00
2018-04-30T02:35:11.707Z,0.00
2018-04-30T02:36:11.680Z,0.00
2018-04-30T02:38:04.537Z,0.00
2018-04-30T02:39:04.511Z,0.00
2018-04-30T02:40:57.385Z,0.00
2018-04-30T02:41:57.352Z,0.00
2018-04-30T02:43:50.256Z,0.00
2018-04-30T02:44:50.179Z,0.00
2018-04-30T02:46:43.043Z,0.00
2018-04-30T02:47:43.010Z,0.00
2018-04-30T02:49:35.859Z,0.00
2018-04-30T02:50:35.847Z,0.00
2018-04-30T02:52:28.703Z,0.00
2018-04-30T02:53:28.676Z,0.00
2018-04-30T02:55:21.529Z,0.00
2018-04-30T02:56:21.507Z,0.00
2018-04-30T02:58:14.373Z,0.00
2018-04-30T02:59:14.339Z,0.00
2018-04-30T03:01:07.193Z,0.00
2018-04-30T03:02:07.181Z,0.00
2018-04-30T03:04:00.039Z,0.00
2018-04-30T03:05:00.012Z,0.00
2018-04-30T03:06:52.860Z,0.00
2018-04-30T03:07:52.839Z,0.00
2018-04-30T03:09:45.708Z,0.00
2018-04-30T03:10:45.673Z,0.00
2018-04-30T03:12:38.533Z,0.00
2018-04-30T03:13:38.510Z,0.00
2018-04-30T03:15:31.368Z,0.00
2018-04-30T03:16:31.340Z,0.00
2018-04-30T03:18:24.185Z,0.00
2018-04-30T03:19:24.164Z,0.00
2018-04-30T03:21:17.034Z,0.00
2018-04-30T03:22:17.001Z,0.00
2018-04-30T03:24:09.851Z,0.00
2018-04-30T03:25:09.830Z,0.00
2018-04-30T03:27:02.689Z,0.00
2018-04-30T03:28:02.665Z,0.00
2018-04-30T03:29:55.513Z,0.00
2018-04-30T03:30:55.494Z,0.00
2018-04-30T03:32:48.361Z,0.00
2018-04-30T03:33:48.324Z,0.00
2018-04-30T03:35:41.173Z,0.00
2018-04-30T03:36:41.153Z,0.00
2018-04-30T03:38:34.021Z,0.00
2018-04-30T03:39:33.986Z,0.00
2018-04-30T03:41:26.838Z,0.00
2018-04-30T03:42:26.817Z,0.00
2018-04-30T03:44:19.681Z,0.00
2018-04-30T03:45:19.652Z,0.00
2018-04-30T03:47:12.502Z,0.00
2018-04-30T03:48:12.478Z,0.00
2018-04-30T03:50:05.339Z,0.00
2018-04-30T03:51:05.307Z,0.00
2018-04-30T03:52:58.158Z,0.00
2018-04-30T03:53:58.142Z,0.00
2018-04-30T03:55:51.003Z,0.00
2018-04-30T03:56:50.971Z,0.00
2018-04-30T03:58:43.822Z,0.00
2018-04-30T03:59:43.801Z,0.00
2018-04-30T04:01:36.664Z,0.00
2018-04-30T04:02:36.636Z,0.00
2018-04-30T04:04:29.495Z,0.00
2018-04-30T04:05:29.472Z,0.00
2018-04-30T04:07:22.334Z,0.00
2018-04-30T04:08:22.304Z,0.00
2018-04-30T04:10:15.157Z,0.00
2018-04-30T04:11:15.135Z,0.00
2018-04-30T04:13:07.997Z,0.00
2018-04-30T04:14:07.968Z,0.00
2018-04-30T04:16:00.818Z,0.00
2018-04-30T04:17:00.798Z,0.00
2018-04-30T04:18:53.689Z,0.00
2018-04-30T04:19:53.756Z,0.00
2018-04-30T04:21:46.511Z,0.00
2018-04-30T04:22:46.489Z,0.00
2018-04-30T04:24:39.352Z,0.00
2018-04-30T04:25:39.328Z,0.00
2018-04-30T04:27:32.184Z,5.63
2018-04-30T04:28:32.162Z,5.63
2018-04-30T04:30:25.027Z,5.63
2018-04-30T04:31:24.992Z,5.63
2018-04-30T04:33:17.842Z,5.63
2018-04-30T04:34:17.826Z,5.63
2018-04-30T04:36:10.685Z,5.63
2018-04-30T04:37:10.652Z,11.25
2018-04-30T04:39:03.504Z,11.25
2018-04-30T04:40:03.489Z,11.25
2018-04-30T04:41:56.347Z,11.25
2018-04-30T04:42:56.315Z,11.25
2018-04-30T04:44:49.165Z,11.25
2018-04-30T04:45:49.145Z,11.25
2018-04-30T04:47:42.010Z,11.25
2018-04-30T04:48:41.976Z,11.25
2018-04-30T04:50:34.828Z,16.88
2018-04-30T04:51:34.806Z,16.88
2018-04-30T04:53:27.679Z,22.50
2018-04-30T04:54:27.641Z,22.50
2018-04-30T04:56:20.570Z,28.13
2018-04-30T04:57:20.473Z,28.13
2018-04-30T04:59:13.334Z,28.13
2018-04-30T05:00:13.305Z,28.13
2018-04-30T05:02:06.157Z,28.13
2018-04-30T05:03:06.137Z,28.13
2018-04-30T05:04:59.003Z,33.75
2018-04-30T05:05:58.969Z,39.38
2018-04-30T05:07:51.819Z,50.63
2018-04-30T05:08:51.798Z,56.25
2018-04-30T05:10:44.660Z,61.88
2018-04-30T05:11:44.626Z,67.50
2018-04-30T05:13:37.482Z,73.13
2018-04-30T05:14:37.462Z,73.13
2018-04-30T05:16:30.322Z,78.75
2018-04-30T05:17:30.294Z,73.13
2018-04-30T05:19:23.154Z,73.13
2018-04-30T05:20:23.125Z,78.75
2018-04-30T05:22:15.988Z,90.00
2018-04-30T05:23:15.954Z,95.63
2018-04-30T05:25:08.805Z,101.25
2018-04-30T05:26:08.784Z,112.50
2018-04-30T05:28:01.649Z,140.63
2018-04-30T05:29:01.622Z,151.88
2018-04-30T05:30:54.472Z,163.13
2018-04-30T05:31:54.451Z,151.88
2018-04-30T05:33:47.377Z,112.50
2018-04-30T05:34:47.285Z,106.88
2018-04-30T05:36:40.136Z,101.25
2018-04-30T05:37:40.118Z,101.25
2018-04-30T05:39:32.984Z,95.63
2018-04-30T05:40:32.950Z,95.63
2018-04-30T05:42:25.804Z,118.13
2018-04-30T05:43:25.786Z,123.75
2018-04-30T05:45:18.662Z,146.25
2018-04-30T05:46:18.624Z,163.13
2018-04-30T05:48:11.476Z,191.25
2018-04-30T05:49:11.456Z,286.88
2018-04-30T05:51:04.316Z,247.50
2018-04-30T05:52:04.293Z,253.13
2018-04-30T05:53:57.147Z,320.63
2018-04-30T05:54:57.132Z,315.00
2018-04-30T05:56:49.996Z,478.13
2018-04-30T05:57:49.965Z,720.00
2018-04-30T05:59:42.817Z,382.50
2018-04-30T06:00:42.797Z,573.75
2018-04-30T06:02:35.668Z,315.00
2018-04-30T06:03:35.636Z,219.38
2018-04-30T06:05:28.493Z,157.50
2018-04-30T06:06:28.475Z,146.25
2018-04-30T06:08:21.343Z,163.13
2018-04-30T06:09:21.314Z,157.50
2018-04-30T06:11:14.177Z,129.38
2018-04-30T06:12:14.219Z,140.63
2018-04-30T06:14:07.019Z,151.88
2018-04-30T06:15:07.015Z,146.25
2018-04-30T06:16:59.885Z,129.38
2018-04-30T06:17:59.824Z,118.13
2018-04-30T06:19:52.691Z,135.00
2018-04-30T06:20:52.663Z,140.63
2018-04-30T06:22:45.518Z,135.00
2018-04-30T06:23:45.500Z,146.25
2018-04-30T06:25:38.366Z,180.00
2018-04-30T06:26:38.435Z,202.50
2018-04-30T06:28:31.189Z,376.88
2018-04-30T06:29:31.170Z,421.88
2018-04-30T06:31:24.042Z,354.38
2018-04-30T06:32:24.008Z,270.00
2018-04-30T06:34:16.863Z,180.00
2018-04-30T06:35:16.844Z,151.88
2018-04-30T06:37:09.713Z,174.38
2018-04-30T06:38:09.685Z,180.00
2018-04-30T06:40:02.534Z,213.75
2018-04-30T06:41:02.516Z,382.50
2018-04-30T06:42:55.386Z,185.63
2018-04-30T06:43:55.357Z,151.88
2018-04-30T06:45:48.260Z,140.63
2018-04-30T06:46:48.192Z,151.88
2018-04-30T06:48:41.138Z,208.13
2018-04-30T06:49:41.030Z,253.13
2018-04-30T06:51:33.883Z,388.13
2018-04-30T06:52:33.873Z,405.00
2018-04-30T06:54:26.732Z,517.50
2018-04-30T06:55:26.702Z,1063.13
2018-04-30T06:57:19.561Z,568.13
2018-04-30T06:58:19.544Z,675.00
2018-04-30T07:00:12.433Z,511.88
2018-04-30T07:01:12.391Z,714.38
2018-04-30T07:03:05.271Z,725.63
2018-04-30T07:04:05.250Z,298.13
2018-04-30T07:05:58.124Z,635.63
2018-04-30T07:06:58.101Z,675.00
2018-04-30T07:08:50.966Z,725.63
2018-04-30T07:09:50.952Z,787.50
2018-04-30T07:11:43.831Z,708.75
2018-04-30T07:12:43.807Z,753.75
2018-04-30T07:14:36.685Z,534.38
2018-04-30T07:15:36.672Z,455.63
2018-04-30T07:17:29.550Z,495.00
2018-04-30T07:18:29.525Z,663.75
2018-04-30T07:20:22.403Z,658.13
2018-04-30T07:21:22.389Z,658.13
2018-04-30T07:23:15.275Z,579.38
2018-04-30T07:24:15.250Z,270.00
2018-04-30T07:26:08.122Z,568.13
2018-04-30T07:27:08.107Z,551.25
2018-04-30T07:29:01.057Z,607.50
2018-04-30T07:30:00.960Z,590.63
2018-04-30T07:31:53.832Z,579.38
2018-04-30T07:32:53.821Z,562.50
2018-04-30T07:34:46.702Z,315.00
2018-04-30T07:35:46.678Z,596.25
2018-04-30T07:37:39.547Z,568.13
2018-04-30T07:38:39.539Z,185.63
2018-04-30T07:40:32.417Z,528.75
2018-04-30T07:41:32.394Z,315.00
2018-04-30T07:43:25.265Z,742.50
2018-04-30T07:44:25.254Z,371.25
2018-04-30T07:46:18.136Z,675.00
2018-04-30T07:47:18.113Z,669.38
2018-04-30T07:49:10.997Z,708.75
2018-04-30T07:50:10.974Z,770.63
2018-04-30T07:52:03.856Z,433.13
2018-04-30T07:53:03.831Z,320.63
2018-04-30T07:54:56.701Z,247.50
2018-04-30T07:55:56.692Z,360.00
2018-04-30T07:57:49.582Z,624.38
2018-04-30T07:58:49.552Z,517.50
2018-04-30T08:00:42.416Z,596.25
2018-04-30T08:01:42.408Z,652.50
2018-04-30T08:03:35.285Z,613.13
2018-04-30T08:04:35.269Z,579.38
2018-04-30T08:06:28.142Z,225.00
2018-04-30T08:07:28.123Z,196.88
2018-04-30T08:09:21.003Z,236.25
2018-04-30T08:10:20.979Z,540.00
2018-04-30T08:12:13.848Z,489.38
2018-04-30T08:13:13.847Z,202.50
2018-04-30T08:15:06.728Z,230.63
2018-04-30T08:16:06.703Z,202.50
2018-04-30T08:17:59.574Z,382.50
2018-04-30T08:18:59.560Z,180.00
2018-04-30T08:20:52.437Z,416.25
2018-04-30T08:21:52.420Z,258.75
2018-04-30T08:23:45.288Z,354.38
2018-04-30T08:24:45.277Z,399.38
2018-04-30T08:26:38.164Z,388.13
2018-04-30T08:27:38.138Z,382.50
2018-04-30T08:29:31.010Z,382.50
2018-04-30T08:30:31.006Z,405.00
2018-04-30T08:32:23.883Z,455.63
2018-04-30T08:33:23.864Z,405.00
2018-04-30T08:35:16.730Z,416.25
2018-04-30T08:36:16.728Z,438.75
2018-04-30T08:38:09.605Z,405.00
2018-04-30T08:39:09.588Z,382.50
2018-04-30T08:41:02.462Z,399.38
2018-04-30T08:42:02.452Z,466.88
2018-04-30T08:43:55.337Z,382.50
2018-04-30T08:44:55.316Z,382.50
2018-04-30T08:46:48.190Z,461.25
2018-04-30T08:47:48.179Z,416.25
2018-04-30T08:49:41.065Z,365.63
2018-04-30T08:50:41.043Z,410.63
2018-04-30T08:52:33.920Z,292.50
2018-04-30T08:53:33.909Z,455.63
2018-04-30T08:55:26.792Z,433.13
2018-04-30T08:56:26.776Z,393.75
2018-04-30T08:58:19.651Z,444.38
2018-04-30T08:59:19.642Z,416.25
2018-04-30T09:01:12.529Z,438.75
2018-04-30T09:02:12.508Z,450.00
2018-04-30T09:04:05.385Z,450.00
2018-04-30T09:05:05.379Z,444.38
2018-04-30T09:06:58.265Z,466.88
2018-04-30T09:07:58.244Z,298.13
2018-04-30T09:09:51.185Z,196.88
2018-04-30T09:10:51.105Z,202.50
2018-04-30T09:12:43.992Z,376.88
2018-04-30T09:13:43.972Z,348.75
2018-04-30T09:15:36.843Z,320.63
2018-04-30T09:16:36.834Z,303.75
2018-04-30T09:18:29.715Z,337.50
2018-04-30T09:19:29.692Z,253.13
2018-04-30T09:21:22.565Z,365.63
2018-04-30T09:22:22.554Z,230.63
2018-04-30T09:24:15.437Z,230.63
2018-04-30T09:25:15.413Z,286.88
2018-04-30T09:27:08.285Z,337.50
2018-04-30T09:28:08.283Z,208.13
2018-04-30T09:30:01.159Z,292.50
2018-04-30T09:31:01.132Z,236.25
2018-04-30T09:32:54.002Z,185.63
2018-04-30T09:33:53.993Z,191.25
2018-04-30T09:35:46.878Z,213.75
2018-04-30T09:36:46.849Z,343.13
2018-04-30T09:38:39.728Z,354.38
2018-04-30T09:39:39.712Z,298.13
2018-04-30T09:41:32.594Z,281.25
2018-04-30T09:42:32.573Z,275.63
2018-04-30T09:44:25.442Z,174.38
2018-04-30T09:45:25.430Z,253.13
2018-04-30T09:47:18.310Z,241.88
2018-04-30T09:48:18.291Z,230.63
2018-04-30T09:50:11.162Z,247.50
2018-04-30T09:51:11.151Z,264.38
2018-04-30T09:53:04.035Z,388.13
2018-04-30T09:54:04.007Z,202.50
2018-04-30T09:55:56.878Z,331.88
2018-04-30T09:56:56.866Z,320.63
2018-04-30T09:58:49.749Z,185.63
2018-04-30T09:59:49.727Z,258.75
2018-04-30T10:01:42.596Z,258.75
2018-04-30T10:02:42.655Z,275.63
2018-04-30T10:04:35.464Z,298.13
2018-04-30T10:05:35.443Z,298.13
2018-04-30T10:07:28.319Z,309.38
2018-04-30T10:08:28.311Z,286.88
2018-04-30T10:10:21.196Z,281.25
2018-04-30T10:11:21.172Z,281.25
2018-04-30T10:13:14.053Z,275.63
2018-04-30T10:14:14.042Z,275.63
2018-04-30T10:16:06.928Z,185.63
2018-04-30T10:17:06.905Z,230.63
2018-04-30T10:18:59.779Z,225.00
2018-04-30T10:19:59.768Z,185.63
2018-04-30T10:21:52.651Z,354.38
2018-04-30T10:22:52.628Z,315.00
2018-04-30T10:24:45.497Z,258.75
2018-04-30T10:25:45.486Z,236.25
2018-04-30T10:27:38.372Z,219.38
2018-04-30T10:28:38.409Z,309.38
2018-04-30T10:30:31.219Z,219.38
2018-04-30T10:31:31.210Z,163.13
2018-04-30T10:33:24.089Z,292.50
2018-04-30T10:34:24.070Z,320.63
2018-04-30T10:36:16.944Z,286.88
2018-04-30T10:37:16.930Z,225.00
2018-04-30T10:39:09.809Z,376.88
2018-04-30T10:40:09.788Z,410.63
2018-04-30T10:42:02.665Z,337.50
2018-04-30T10:43:02.652Z,309.38
2018-04-30T10:44:55.535Z,225.00
2018-04-30T10:45:55.611Z,230.63
2018-04-30T10:47:48.382Z,286.88
2018-04-30T10:48:48.375Z,320.63
2018-04-30T10:50:41.257Z,219.38
2018-04-30T10:51:41.247Z,230.63
2018-04-30T10:53:34.098Z,270.00
2018-04-30T10:54:34.087Z,286.88
2018-04-30T10:56:26.959Z,253.13
2018-04-30T10:57:26.938Z,275.63
2018-04-30T10:59:19.877Z,354.38
2018-04-30T11:00:19.790Z,337.50
2018-04-30T11:02:12.665Z,343.13
2018-04-30T11:03:12.640Z,303.75
2018-04-30T11:05:05.507Z,427.50
2018-04-30T11:06:05.494Z,348.75
2018-04-30T11:07:58.443Z,365.63
2018-04-30T11:08:58.355Z,343.13
2018-04-30T11:10:51.221Z,298.13
2018-04-30T11:11:51.208Z,320.63
2018-04-30T11:13:44.092Z,365.63
2018-04-30T11:14:44.067Z,427.50
2018-04-30T11:16:36.939Z,416.25
2018-04-30T11:17:36.943Z,315.00
2018-04-30T11:19:29.806Z,315.00
2018-04-30T11:20:29.789Z,292.50
2018-04-30T11:22:22.661Z,191.25
2018-04-30T11:23:22.661Z,174.38
2018-04-30T11:25:15.532Z,354.38
2018-04-30T11:26:15.508Z,348.75
2018-04-30T11:28:08.379Z,303.75
2018-04-30T11:29:08.366Z,298.13
2018-04-30T11:31:01.248Z,303.75
2018-04-30T11:32:01.230Z,309.38
2018-04-30T11:33:54.108Z,371.25
2018-04-30T11:34:54.088Z,421.88
2018-04-30T11:36:46.978Z,315.00
2018-04-30T11:37:46.955Z,281.25
2018-04-30T11:39:39.830Z,281.25
2018-04-30T11:40:39.823Z,337.50
2018-04-30T11:42:32.708Z,247.50
2018-04-30T11:43:32.682Z,298.13
2018-04-30T11:45:25.557Z,348.75
2018-04-30T11:46:25.545Z,360.00
2018-04-30T11:48:18.421Z,281.25
2018-04-30T11:49:18.404Z,236.25
2018-04-30T11:51:11.278Z,191.25
2018-04-30T11:52:11.268Z,196.88
2018-04-30T11:54:04.151Z,270.00
2018-04-30T11:55:04.131Z,258.75
2018-04-30T11:56:57.001Z,298.13
2018-04-30T11:57:56.988Z,382.50
2018-04-30T11:59:49.885Z,331.88
2018-04-30T12:00:49.844Z,371.25
2018-04-30T12:02:42.711Z,393.75
2018-04-30T12:03:42.700Z,360.00
2018-04-30T12:05:35.576Z,331.88
2018-04-30T12:06:35.558Z,320.63
2018-04-30T12:08:28.441Z,264.38
2018-04-30T12:09:28.418Z,337.50
2018-04-30T12:11:21.301Z,365.63
2018-04-30T12:12:21.280Z,337.50
2018-04-30T12:14:14.154Z,270.00
2018-04-30T12:15:14.143Z,270.00
2018-04-30T12:17:07.028Z,258.75
2018-04-30T12:18:07.005Z,253.13
2018-04-30T12:19:59.885Z,281.25
2018-04-30T12:20:59.874Z,270.00
2018-04-30T12:22:52.755Z,230.63
2018-04-30T12:23:52.736Z,230.63
2018-04-30T12:25:45.611Z,230.63
2018-04-30T12:26:45.603Z,230.63
2018-04-30T12:28:38.486Z,230.63
2018-04-30T12:29:38.525Z,247.50
2018-04-30T12:31:31.338Z,281.25
2018-04-30T12:32:31.327Z,264.38
2018-04-30T12:34:24.214Z,258.75
2018-04-30T12:35:24.189Z,253.13
2018-04-30T12:37:17.059Z,213.75
2018-04-30T12:38:17.051Z,241.88
2018-04-30T12:40:09.927Z,241.88
2018-04-30T12:41:09.909Z,247.50
2018-04-30T12:43:02.778Z,196.88
2018-04-30T12:44:02.767Z,253.13
2018-04-30T12:45:55.644Z,253.13
2018-04-30T12:46:55.630Z,241.88
2018-04-30T12:48:48.499Z,270.00
2018-04-30T12:49:48.509Z,185.63
2018-04-30T12:51:41.366Z,202.50
2018-04-30T12:52:41.349Z,247.50
2018-04-30T12:54:34.226Z,281.25
2018-04-30T12:55:34.214Z,365.63
2018-04-30T12:57:27.165Z,258.75
2018-04-30T12:58:27.074Z,253.13
2018-04-30T13:00:19.954Z,303.75
2018-04-30T13:01:19.933Z,258.75
2018-04-30T13:03:12.804Z,270.00
2018-04-30T13:04:12.786Z,253.13
2018-04-30T13:06:05.664Z,196.88
2018-04-30T13:07:05.639Z,196.88
2018-04-30T13:08:58.512Z,225.00
2018-04-30T13:09:58.504Z,320.63
2018-04-30T13:11:51.377Z,286.88
2018-04-30T13:12:51.353Z,258.75
2018-04-30T13:14:44.217Z,264.38
2018-04-30T13:15:44.235Z,270.00
2018-04-30T13:17:37.080Z,230.63
2018-04-30T13:18:37.060Z,219.38
2018-04-30T13:20:29.961Z,208.13
2018-04-30T13:21:29.916Z,208.13
2018-04-30T13:23:22.787Z,140.63
2018-04-30T13:24:22.777Z,213.75
2018-04-30T13:26:15.664Z,281.25
2018-04-30T13:27:15.626Z,270.00
2018-04-30T13:29:08.497Z,270.00
2018-04-30T13:30:08.485Z,281.25
2018-04-30T13:32:01.367Z,264.38
2018-04-30T13:33:01.342Z,225.00
2018-04-30T13:34:54.207Z,202.50
2018-04-30T13:35:54.194Z,135.00
2018-04-30T13:37:47.071Z,185.63
2018-04-30T13:38:47.050Z,208.13
2018-04-30T13:40:39.917Z,196.88
2018-04-30T13:41:39.914Z,196.88
2018-04-30T13:43:32.811Z,196.88
2018-04-30T13:44:32.763Z,202.50
2018-04-30T13:46:25.630Z,185.63
2018-04-30T13:47:25.620Z,180.00
2018-04-30T13:49:18.500Z,174.38
2018-04-30T13:50:18.474Z,174.38
2018-04-30T13:52:11.344Z,180.00
2018-04-30T13:53:11.334Z,123.75
2018-04-30T13:55:04.206Z,151.88
2018-04-30T13:56:04.188Z,168.75
2018-04-30T13:57:57.053Z,202.50
2018-04-30T13:58:57.042Z,191.25
2018-04-30T14:00:49.922Z,219.38
2018-04-30T14:01:49.942Z,202.50
2018-04-30T14:03:42.768Z,168.75
2018-04-30T14:04:42.755Z,174.38
2018-04-30T14:06:35.634Z,174.38
2018-04-30T14:07:35.609Z,168.75
2018-04-30T14:09:28.479Z,163.13
2018-04-30T14:10:28.469Z,163.13
2018-04-30T14:12:21.339Z,157.50
2018-04-30T14:13:21.320Z,157.50
2018-04-30T14:15:14.188Z,151.88
2018-04-30T14:16:14.177Z,146.25
2018-04-30T14:18:07.063Z,146.25
2018-04-30T14:19:07.040Z,146.25
2018-04-30T14:20:59.909Z,151.88
2018-04-30T14:21:59.897Z,151.88
2018-04-30T14:23:52.778Z,151.88
2018-04-30T14:24:52.753Z,146.25
2018-04-30T14:26:45.621Z,146.25
2018-04-30T14:27:45.642Z,146.25
2018-04-30T14:29:38.484Z,146.25
2018-04-30T14:30:38.466Z,146.25
2018-04-30T14:32:31.330Z,140.63
2018-04-30T14:33:31.315Z,140.63
2018-04-30T14:35:24.192Z,140.63
2018-04-30T14:36:24.169Z,140.63
2018-04-30T14:38:17.177Z,140.63
2018-04-30T14:39:17.018Z,140.63
2018-04-30T14:41:09.901Z,135.00
2018-04-30T14:42:09.875Z,135.00
2018-04-30T14:44:02.741Z,135.00
2018-04-30T14:45:02.727Z,135.00
2018-04-30T14:46:55.603Z,135.00
2018-04-30T14:47:55.581Z,135.00
2018-04-30T14:49:48.443Z,135.00
2018-04-30T14:50:48.433Z,129.38
2018-04-30T14:52:41.305Z,129.38
2018-04-30T14:53:41.280Z,129.38
2018-04-30T14:55:34.142Z,129.38
2018-04-30T14:56:34.137Z,129.38
2018-04-30T14:58:27.005Z,129.38
2018-04-30T14:59:26.982Z,129.38
2018-04-30T15:01:19.843Z,123.75
2018-04-30T15:02:19.827Z,123.75
2018-04-30T15:04:12.700Z,123.75
2018-04-30T15:05:12.680Z,123.75
2018-04-30T15:07:05.548Z,123.75
2018-04-30T15:08:05.527Z,123.75
2018-04-30T15:09:58.405Z,123.75
2018-04-30T15:10:58.380Z,106.88
2018-04-30T15:12:51.244Z,112.50
2018-04-30T15:13:51.228Z,101.25
2018-04-30T15:15:44.106Z,95.63
2018-04-30T15:16:44.079Z,95.63
2018-04-30T15:18:36.943Z,95.63
2018-04-30T15:19:36.938Z,95.63
2018-04-30T15:21:29.796Z,95.63
2018-04-30T15:22:29.783Z,95.63
2018-04-30T15:24:22.634Z,95.63
2018-04-30T15:25:22.619Z,95.63
2018-04-30T15:27:15.496Z,95.63
2018-04-30T15:28:15.469Z,95.63
2018-04-30T15:30:08.332Z,106.88
2018-04-30T15:31:08.315Z,101.25
2018-04-30T15:33:01.202Z,95.63
2018-04-30T15:34:01.160Z,95.63
2018-04-30T15:35:54.047Z,95.63
2018-04-30T15:36:54.004Z,95.63
2018-04-30T15:38:46.885Z,95.63
2018-04-30T15:39:46.857Z,90.00
2018-04-30T15:41:39.717Z,90.00
2018-04-30T15:42:39.699Z,95.63
2018-04-30T15:44:32.573Z,112.50
2018-04-30T15:45:32.543Z,129.38
2018-04-30T15:47:25.406Z,157.50
2018-04-30T15:48:25.389Z,180.00
2018-04-30T15:50:18.256Z,146.25
2018-04-30T15:51:18.242Z,135.00
2018-04-30T15:53:11.093Z,129.38
2018-04-30T15:54:11.078Z,118.13
2018-04-30T15:56:03.955Z,106.88
2018-04-30T15:57:03.920Z,101.25
2018-04-30T15:58:56.783Z,95.63
2018-04-30T15:59:56.761Z,95.63
2018-04-30T16:01:49.635Z,95.63
2018-04-30T16:02:49.607Z,90.00
2018-04-30T16:04:42.464Z,90.00
2018-04-30T16:05:42.448Z,90.00
2018-04-30T16:07:35.322Z,90.00
2018-04-30T16:08:35.295Z,90.00
2018-04-30T16:10:28.157Z,90.00
2018-04-30T16:11:28.132Z,90.00
2018-04-30T16:13:20.994Z,84.38
2018-04-30T16:14:20.991Z,84.38
2018-04-30T16:16:13.829Z,84.38
2018-04-30T16:17:13.810Z,84.38
2018-04-30T16:19:06.688Z,84.38
2018-04-30T16:20:06.661Z,84.38
2018-04-30T16:21:59.519Z,84.38
2018-04-30T16:22:59.500Z,84.38
2018-04-30T16:24:52.368Z,84.38
2018-04-30T16:25:52.338Z,84.38
2018-04-30T16:27:45.193Z,84.38
2018-04-30T16:28:45.176Z,84.38
2018-04-30T16:30:38.119Z,84.38
2018-04-30T16:31:38.016Z,84.38
2018-04-30T16:33:30.869Z,84.38
2018-04-30T16:34:30.857Z,78.75
2018-04-30T16:36:23.721Z,78.75
2018-04-30T16:37:23.689Z,78.75
2018-04-30T16:39:16.547Z,78.75
2018-04-30T16:40:16.537Z,78.75
2018-04-30T16:42:09.400Z,78.75
2018-04-30T16:43:09.368Z,78.75
2018-04-30T16:45:02.230Z,78.75
2018-04-30T16:46:02.211Z,78.75
2018-04-30T16:47:55.079Z,78.75
2018-04-30T16:48:55.051Z,78.75
2018-04-30T16:50:47.905Z,78.75
2018-04-30T16:51:47.890Z,73.13
2018-04-30T16:53:40.758Z,73.13
2018-04-30T16:54:40.731Z,73.13
2018-04-30T16:56:33.582Z,73.13
2018-04-30T16:57:33.564Z,73.13
2018-04-30T16:59:26.431Z,73.13
2018-04-30T17:00:26.399Z,73.13
2018-04-30T17:02:19.254Z,73.13
2018-04-30T17:03:19.235Z,73.13
2018-04-30T17:05:12.100Z,73.13
2018-04-30T17:06:12.075Z,67.50
2018-04-30T17:08:04.930Z,67.50
2018-04-30T17:09:04.912Z,67.50
2018-04-30T17:10:57.785Z,67.50
2018-04-30T17:11:57.760Z,67.50
2018-04-30T17:13:50.614Z,67.50
2018-04-30T17:14:50.593Z,67.50
2018-04-30T17:16:43.466Z,61.88
2018-04-30T17:17:43.516Z,61.88
2018-04-30T17:19:36.285Z,61.88
2018-04-30T17:20:36.266Z,61.88
2018-04-30T17:22:29.706Z,61.88
2018-04-30T17:23:29.108Z,61.88
2018-04-30T17:25:21.968Z,61.88
2018-04-30T17:26:21.942Z,61.88
2018-04-30T17:28:14.810Z,56.25
2018-04-30T17:29:14.781Z,56.25
2018-04-30T17:31:07.646Z,56.25
2018-04-30T17:32:07.627Z,56.25
2018-04-30T17:34:00.496Z,56.25
2018-04-30T17:35:00.465Z,56.25
2018-04-30T17:36:53.321Z,50.63
2018-04-30T17:37:53.297Z,50.63
2018-04-30T17:39:46.162Z,50.63
2018-04-30T17:40:46.134Z,50.63
2018-04-30T17:42:38.989Z,50.63
2018-04-30T17:43:38.968Z,50.63
2018-04-30T17:45:31.838Z,45.00
2018-04-30T17:46:31.807Z,45.00
2018-04-30T17:48:24.663Z,45.00
2018-04-30T17:49:24.644Z,45.00
2018-04-30T17:51:17.516Z,39.38
2018-04-30T17:52:17.510Z,39.38
2018-04-30T17:54:10.379Z,39.38
2018-04-30T17:55:10.321Z,39.38
2018-04-30T17:57:03.190Z,39.38
2018-04-30T17:58:03.161Z,39.38
2018-04-30T17:59:56.067Z,33.75
2018-04-30T18:00:55.995Z,33.75
2018-04-30T18:02:48.862Z,33.75
2018-04-30T18:03:48.831Z,33.75
2018-04-30T18:05:41.687Z,28.13
2018-04-30T18:06:41.660Z,28.13
2018-04-30T18:08:34.535Z,28.13
2018-04-30T18:09:34.508Z,22.50
2018-04-30T18:11:27.369Z,22.50
2018-04-30T18:12:27.348Z,22.50
2018-04-30T18:14:20.216Z,22.50
2018-04-30T18:15:20.186Z,22.50
2018-04-30T18:17:13.038Z,16.88
2018-04-30T18:18:13.021Z,16.88
2018-04-30T18:20:05.887Z,16.88
2018-04-30T18:21:05.854Z,16.88
2018-04-30T18:22:58.709Z,11.25